sensor_id;sensor_type;location;lat;lon;timestamp;P1;durP1;ratioP1;P2;durP2;ratioP2
37559;SDS011;23398;50.928;7.084;2022-08-06T00:01:42;3.25;;;1.30;;
37559;SDS011;23398;50.928;7.084;2022-08-06T00:04:08;1.27;;;1.10;;
37559;SDS011;23398;50.928;7.084;2022-08-06T00:06:34;1.10;;;1.00;;
37559;SDS011;23398;50.928;7.084;2022-08-06T00:08:59;1.70;;;1.02;;
37559;SDS011;23398;50.928;7.084;2022-08-06T00:11:25;2.28;;;1.25;;
37559;SDS011;23398;50.928;7.084;2022-08-06T00:13:51;1.30;;;0.93;;
37559;SDS011;23398;50.928;7.084;2022-08-06T00:16:16;2.08;;;1.10;;
37559;SDS011;23398;50.928;7.084;2022-08-06T00:18:42;2.13;;;1.00;;
37559;SDS011;23398;50.928;7.084;2022-08-06T00:21:08;1.20;;;1.05;;
37559;SDS011;23398;50.928;7.084;2022-08-06T00:23:33;1.10;;;1.00;;
37559;SDS011;23398;50.928;7.084;2022-08-06T00:25:59;1.52;;;1.27;;
37559;SDS011;23398;50.928;7.084;2022-08-06T00:28:24;1.50;;;1.10;;
37559;SDS011;23398;50.928;7.084;2022-08-06T00:30:50;1.33;;;1.13;;
37559;SDS011;23398;50.928;7.084;2022-08-06T00:33:17;1.30;;;1.05;;
37559;SDS011;23398;50.928;7.084;2022-08-06T00:35:43;2.28;;;1.20;;
37559;SDS011;23398;50.928;7.084;2022-08-06T00:38:08;1.40;;;1.10;;
37559;SDS011;23398;50.928;7.084;2022-08-06T00:40:35;1.20;;;0.93;;
37559;SDS011;23398;50.928;7.084;2022-08-06T00:43:02;1.60;;;1.15;;
37559;SDS011;23398;50.928;7.084;2022-08-06T00:45:31;2.00;;;1.15;;
37559;SDS011;23398;50.928;7.084;2022-08-06T00:47:59;1.92;;;1.38;;
37559;SDS011;23398;50.928;7.084;2022-08-06T00:50:25;1.88;;;1.00;;
37559;SDS011;23398;50.928;7.084;2022-08-06T00:52:50;1.42;;;1.08;;
37559;SDS011;23398;50.928;7.084;2022-08-06T00:55:16;1.77;;;1.20;;
37559;SDS011;23398;50.928;7.084;2022-08-06T00:57:42;1.67;;;1.20;;
37559;SDS011;23398;50.928;7.084;2022-08-06T01:00:08;1.75;;;1.10;;
37559;SDS011;23398;50.928;7.084;2022-08-06T01:02:34;1.65;;;1.02;;
37559;SDS011;23398;50.928;7.084;2022-08-06T01:05:00;1.73;;;0.98;;
37559;SDS011;23398;50.928;7.084;2022-08-06T01:07:25;1.10;;;1.00;;
37559;SDS011;23398;50.928;7.084;2022-08-06T01:09:51;1.83;;;0.95;;
37559;SDS011;23398;50.928;7.084;2022-08-06T01:12:17;1.10;;;1.00;;
37559;SDS011;23398;50.928;7.084;2022-08-06T01:14:42;1.85;;;1.10;;
37559;SDS011;23398;50.928;7.084;2022-08-06T01:17:13;1.17;;;1.00;;
37559;SDS011;23398;50.928;7.084;2022-08-06T01:19:50;1.15;;;1.00;;
37559;SDS011;23398;50.928;7.084;2022-08-06T01:22:23;1.65;;;0.95;;
37559;SDS011;23398;50.928;7.084;2022-08-06T01:27:40;2.70;;;1.00;;
37559;SDS011;23398;50.928;7.084;2022-08-06T01:30:17;1.20;;;0.90;;
37559;SDS011;23398;50.928;7.084;2022-08-06T01:32:48;3.17;;;1.00;;
37559;SDS011;23398;50.928;7.084;2022-08-06T01:35:23;2.05;;;1.17;;
37559;SDS011;23398;50.928;7.084;2022-08-06T01:37:57;1.48;;;0.95;;
37559;SDS011;23398;50.928;7.084;2022-08-06T01:40:28;1.33;;;1.00;;
37559;SDS011;23398;50.928;7.084;2022-08-06T01:42:56;1.05;;;0.95;;
37559;SDS011;23398;50.928;7.084;2022-08-06T01:45:25;2.75;;;1.10;;
37559;SDS011;23398;50.928;7.084;2022-08-06T01:48:08;1.60;;;1.10;;
37559;SDS011;23398;50.928;7.084;2022-08-06T01:50:43;2.42;;;0.90;;
37559;SDS011;23398;50.928;7.084;2022-08-06T01:53:11;2.40;;;1.17;;
37559;SDS011;23398;50.928;7.084;2022-08-06T01:55:41;1.52;;;0.90;;
37559;SDS011;23398;50.928;7.084;2022-08-06T01:58:10;1.55;;;1.08;;
37559;SDS011;23398;50.928;7.084;2022-08-06T02:00:38;1.10;;;1.00;;
37559;SDS011;23398;50.928;7.084;2022-08-06T02:03:11;1.70;;;1.00;;
37559;SDS011;23398;50.928;7.084;2022-08-06T02:05:41;1.67;;;1.10;;
37559;SDS011;23398;50.928;7.084;2022-08-06T02:08:09;1.33;;;1.00;;
37559;SDS011;23398;50.928;7.084;2022-08-06T02:10:38;1.13;;;0.80;;
37559;SDS011;23398;50.928;7.084;2022-08-06T02:13:06;0.90;;;0.90;;
37559;SDS011;23398;50.928;7.084;2022-08-06T02:15:35;1.30;;;0.90;;
37559;SDS011;23398;50.928;7.084;2022-08-06T02:18:02;1.58;;;1.20;;
37559;SDS011;23398;50.928;7.084;2022-08-06T02:20:34;1.60;;;0.93;;
37559;SDS011;23398;50.928;7.084;2022-08-06T02:23:03;1.15;;;0.90;;
37559;SDS011;23398;50.928;7.084;2022-08-06T02:25:31;1.20;;;1.00;;
37559;SDS011;23398;50.928;7.084;2022-08-06T02:27:59;1.58;;;1.13;;
37559;SDS011;23398;50.928;7.084;2022-08-06T02:30:28;1.00;;;0.90;;
37559;SDS011;23398;50.928;7.084;2022-08-06T02:32:57;1.33;;;0.95;;
37559;SDS011;23398;50.928;7.084;2022-08-06T02:35:23;1.88;;;1.00;;
37559;SDS011;23398;50.928;7.084;2022-08-06T02:37:55;1.02;;;0.90;;
37559;SDS011;23398;50.928;7.084;2022-08-06T02:40:40;1.27;;;1.17;;
37559;SDS011;23398;50.928;7.084;2022-08-06T02:43:18;1.10;;;0.90;;
37559;SDS011;23398;50.928;7.084;2022-08-06T02:45:55;4.13;;;1.00;;
37559;SDS011;23398;50.928;7.084;2022-08-06T02:48:50;2.22;;;1.15;;
37559;SDS011;23398;50.928;7.084;2022-08-06T02:51:22;2.63;;;1.08;;
37559;SDS011;23398;50.928;7.084;2022-08-06T02:53:58;1.00;;;0.90;;
37559;SDS011;23398;50.928;7.084;2022-08-06T02:56:47;1.15;;;1.00;;
37559;SDS011;23398;50.928;7.084;2022-08-06T02:59:17;1.88;;;1.10;;
37559;SDS011;23398;50.928;7.084;2022-08-06T03:01:50;2.10;;;1.10;;
37559;SDS011;23398;50.928;7.084;2022-08-06T03:04:21;1.27;;;1.17;;
37559;SDS011;23398;50.928;7.084;2022-08-06T03:06:50;1.13;;;1.00;;
37559;SDS011;23398;50.928;7.084;2022-08-06T03:09:17;1.80;;;1.02;;
37559;SDS011;23398;50.928;7.084;2022-08-06T03:11:45;1.25;;;1.10;;
37559;SDS011;23398;50.928;7.084;2022-08-06T03:14:12;3.25;;;1.10;;
37559;SDS011;23398;50.928;7.084;2022-08-06T03:16:40;1.77;;;1.13;;
37559;SDS011;23398;50.928;7.084;2022-08-06T03:19:06;2.78;;;1.13;;
37559;SDS011;23398;50.928;7.084;2022-08-06T03:21:34;1.08;;;0.98;;
37559;SDS011;23398;50.928;7.084;2022-08-06T03:24:01;1.10;;;1.00;;
37559;SDS011;23398;50.928;7.084;2022-08-06T03:26:29;0.95;;;0.90;;
37559;SDS011;23398;50.928;7.084;2022-08-06T03:28:55;1.38;;;1.00;;
37559;SDS011;23398;50.928;7.084;2022-08-06T03:31:22;1.10;;;1.00;;
37559;SDS011;23398;50.928;7.084;2022-08-06T03:33:49;1.42;;;1.10;;
37559;SDS011;23398;50.928;7.084;2022-08-06T03:36:16;1.92;;;1.10;;
37559;SDS011;23398;50.928;7.084;2022-08-06T03:38:45;1.55;;;1.10;;
37559;SDS011;23398;50.928;7.084;2022-08-06T03:41:14;1.10;;;1.00;;
37559;SDS011;23398;50.928;7.084;2022-08-06T03:43:41;3.20;;;1.05;;
37559;SDS011;23398;50.928;7.084;2022-08-06T03:46:07;1.75;;;1.00;;
37559;SDS011;23398;50.928;7.084;2022-08-06T03:48:37;1.67;;;0.90;;
37559;SDS011;23398;50.928;7.084;2022-08-06T03:51:05;1.30;;;1.00;;
37559;SDS011;23398;50.928;7.084;2022-08-06T03:53:36;1.40;;;1.02;;
37559;SDS011;23398;50.928;7.084;2022-08-06T03:56:04;1.40;;;1.10;;
37559;SDS011;23398;50.928;7.084;2022-08-06T03:58:33;1.02;;;0.93;;
37559;SDS011;23398;50.928;7.084;2022-08-06T04:01:03;1.13;;;0.90;;
37559;SDS011;23398;50.928;7.084;2022-08-06T04:03:32;3.13;;;1.13;;
37559;SDS011;23398;50.928;7.084;2022-08-06T04:06:00;0.98;;;0.95;;
37559;SDS011;23398;50.928;7.084;2022-08-06T04:08:28;2.13;;;0.98;;
37559;SDS011;23398;50.928;7.084;2022-08-06T04:10:55;0.90;;;0.90;;
37559;SDS011;23398;50.928;7.084;2022-08-06T04:13:22;1.13;;;0.90;;
37559;SDS011;23398;50.928;7.084;2022-08-06T04:15:50;1.08;;;0.93;;
37559;SDS011;23398;50.928;7.084;2022-08-06T04:18:18;1.10;;;1.00;;
37559;SDS011;23398;50.928;7.084;2022-08-06T04:20:47;2.10;;;1.15;;
37559;SDS011;23398;50.928;7.084;2022-08-06T04:23:15;1.15;;;0.90;;
37559;SDS011;23398;50.928;7.084;2022-08-06T04:25:49;1.05;;;0.98;;
37559;SDS011;23398;50.928;7.084;2022-08-06T04:28:20;1.10;;;1.00;;
37559;SDS011;23398;50.928;7.084;2022-08-06T04:30:47;2.47;;;1.13;;
37559;SDS011;23398;50.928;7.084;2022-08-06T04:33:14;1.65;;;1.20;;
37559;SDS011;23398;50.928;7.084;2022-08-06T04:35:43;1.60;;;1.30;;
37559;SDS011;23398;50.928;7.084;2022-08-06T04:38:09;1.73;;;1.20;;
37559;SDS011;23398;50.928;7.084;2022-08-06T04:40:36;1.15;;;1.05;;
37559;SDS011;23398;50.928;7.084;2022-08-06T04:43:06;2.50;;;1.20;;
37559;SDS011;23398;50.928;7.084;2022-08-06T04:45:34;1.45;;;1.25;;
37559;SDS011;23398;50.928;7.084;2022-08-06T04:48:03;3.55;;;1.33;;
37559;SDS011;23398;50.928;7.084;2022-08-06T04:50:30;1.48;;;1.30;;
37559;SDS011;23398;50.928;7.084;2022-08-06T04:53:10;2.78;;;1.40;;
37559;SDS011;23398;50.928;7.084;2022-08-06T04:55:38;1.50;;;1.15;;
37559;SDS011;23398;50.928;7.084;2022-08-06T04:58:07;2.03;;;1.25;;
37559;SDS011;23398;50.928;7.084;2022-08-06T05:00:35;1.10;;;1.00;;
37559;SDS011;23398;50.928;7.084;2022-08-06T05:03:02;2.70;;;1.30;;
37559;SDS011;23398;50.928;7.084;2022-08-06T05:05:34;1.35;;;1.10;;
37559;SDS011;23398;50.928;7.084;2022-08-06T05:08:20;2.05;;;1.30;;
37559;SDS011;23398;50.928;7.084;2022-08-06T05:10:56;1.27;;;1.17;;
37559;SDS011;23398;50.928;7.084;2022-08-06T05:13:32;2.33;;;1.10;;
37559;SDS011;23398;50.928;7.084;2022-08-06T05:16:02;1.27;;;1.13;;
37559;SDS011;23398;50.928;7.084;2022-08-06T05:18:50;1.88;;;1.30;;
37559;SDS011;23398;50.928;7.084;2022-08-06T05:21:20;2.05;;;1.20;;
37559;SDS011;23398;50.928;7.084;2022-08-06T05:23:51;1.55;;;1.20;;
37559;SDS011;23398;50.928;7.084;2022-08-06T05:26:19;1.30;;;1.10;;
37559;SDS011;23398;50.928;7.084;2022-08-06T05:28:45;1.23;;;1.10;;
37559;SDS011;23398;50.928;7.084;2022-08-06T05:31:11;1.50;;;1.20;;
37559;SDS011;23398;50.928;7.084;2022-08-06T05:33:37;1.27;;;1.17;;
37559;SDS011;23398;50.928;7.084;2022-08-06T05:36:05;2.65;;;1.60;;
37559;SDS011;23398;50.928;7.084;2022-08-06T05:38:34;1.77;;;1.30;;
37559;SDS011;23398;50.928;7.084;2022-08-06T05:41:04;1.83;;;1.40;;
37559;SDS011;23398;50.928;7.084;2022-08-06T05:43:31;2.20;;;1.58;;
37559;SDS011;23398;50.928;7.084;2022-08-06T05:45:57;1.70;;;1.60;;
37559;SDS011;23398;50.928;7.084;2022-08-06T05:48:26;2.13;;;1.52;;
37559;SDS011;23398;50.928;7.084;2022-08-06T05:51:01;1.55;;;1.40;;
37559;SDS011;23398;50.928;7.084;2022-08-06T05:53:36;3.47;;;1.75;;
37559;SDS011;23398;50.928;7.084;2022-08-06T05:56:09;5.18;;;1.58;;
37559;SDS011;23398;50.928;7.084;2022-08-06T05:58:44;3.15;;;1.63;;
37559;SDS011;23398;50.928;7.084;2022-08-06T06:01:16;1.90;;;1.58;;
37559;SDS011;23398;50.928;7.084;2022-08-06T06:03:42;2.15;;;1.60;;
37559;SDS011;23398;50.928;7.084;2022-08-06T06:06:09;2.35;;;1.60;;
37559;SDS011;23398;50.928;7.084;2022-08-06T06:08:36;1.88;;;1.50;;
37559;SDS011;23398;50.928;7.084;2022-08-06T06:11:02;2.92;;;1.70;;
37559;SDS011;23398;50.928;7.084;2022-08-06T06:13:30;3.47;;;1.80;;
37559;SDS011;23398;50.928;7.084;2022-08-06T06:18:47;3.15;;;1.90;;
37559;SDS011;23398;50.928;7.084;2022-08-06T06:21:21;2.35;;;1.77;;
37559;SDS011;23398;50.928;7.084;2022-08-06T06:23:54;3.17;;;1.67;;
37559;SDS011;23398;50.928;7.084;2022-08-06T06:26:44;3.30;;;1.75;;
37559;SDS011;23398;50.928;7.084;2022-08-06T06:29:33;3.45;;;1.60;;
37559;SDS011;23398;50.928;7.084;2022-08-06T06:32:05;2.10;;;1.70;;
37559;SDS011;23398;50.928;7.084;2022-08-06T06:42:45;2.92;;;1.63;;
37559;SDS011;23398;50.928;7.084;2022-08-06T06:45:24;2.00;;;1.67;;
37559;SDS011;23398;50.928;7.084;2022-08-06T06:48:16;1.73;;;1.42;;
37559;SDS011;23398;50.928;7.084;2022-08-06T06:50:50;2.58;;;1.42;;
37559;SDS011;23398;50.928;7.084;2022-08-06T06:53:18;2.72;;;1.70;;
37559;SDS011;23398;50.928;7.084;2022-08-06T06:55:46;3.10;;;1.58;;
37559;SDS011;23398;50.928;7.084;2022-08-06T06:58:18;2.38;;;1.30;;
37559;SDS011;23398;50.928;7.084;2022-08-06T07:00:50;2.20;;;1.40;;
37559;SDS011;23398;50.928;7.084;2022-08-06T07:03:18;3.45;;;1.65;;
37559;SDS011;23398;50.928;7.084;2022-08-06T07:05:46;3.83;;;1.13;;
37559;SDS011;23398;50.928;7.084;2022-08-06T07:08:13;1.83;;;1.10;;
37559;SDS011;23398;50.928;7.084;2022-08-06T07:10:42;3.88;;;1.40;;
37559;SDS011;23398;50.928;7.084;2022-08-06T07:13:10;1.38;;;1.10;;
37559;SDS011;23398;50.928;7.084;2022-08-06T07:15:37;1.95;;;0.98;;
37559;SDS011;23398;50.928;7.084;2022-08-06T07:18:05;1.92;;;1.10;;
37559;SDS011;23398;50.928;7.084;2022-08-06T07:20:31;1.08;;;0.98;;
37559;SDS011;23398;50.928;7.084;2022-08-06T07:23:00;1.48;;;0.90;;
37559;SDS011;23398;50.928;7.084;2022-08-06T07:25:28;1.67;;;1.05;;
37559;SDS011;23398;50.928;7.084;2022-08-06T07:27:54;2.47;;;0.90;;
37559;SDS011;23398;50.928;7.084;2022-08-06T07:30:20;1.65;;;0.90;;
37559;SDS011;23398;50.928;7.084;2022-08-06T07:32:47;2.97;;;1.10;;
37559;SDS011;23398;50.928;7.084;2022-08-06T07:35:15;1.38;;;0.85;;
37559;SDS011;23398;50.928;7.084;2022-08-06T07:38:03;1.30;;;0.80;;
37559;SDS011;23398;50.928;7.084;2022-08-06T07:40:32;1.58;;;0.95;;
37559;SDS011;23398;50.928;7.084;2022-08-06T07:43:08;1.38;;;0.80;;
37559;SDS011;23398;50.928;7.084;2022-08-06T07:45:34;2.08;;;1.10;;
37559;SDS011;23398;50.928;7.084;2022-08-06T07:48:00;1.42;;;0.90;;
37559;SDS011;23398;50.928;7.084;2022-08-06T07:50:31;1.13;;;1.02;;
37559;SDS011;23398;50.928;7.084;2022-08-06T07:52:57;1.23;;;0.90;;
37559;SDS011;23398;50.928;7.084;2022-08-06T07:55:24;1.75;;;0.90;;
37559;SDS011;23398;50.928;7.084;2022-08-06T07:57:54;1.50;;;1.00;;
37559;SDS011;23398;50.928;7.084;2022-08-06T08:00:22;1.75;;;1.00;;
37559;SDS011;23398;50.928;7.084;2022-08-06T08:02:49;2.60;;;1.17;;
37559;SDS011;23398;50.928;7.084;2022-08-06T08:05:35;4.13;;;1.02;;
37559;SDS011;23398;50.928;7.084;2022-08-06T08:08:22;2.53;;;1.00;;
37559;SDS011;23398;50.928;7.084;2022-08-06T08:10:49;1.50;;;0.95;;
37559;SDS011;23398;50.928;7.084;2022-08-06T08:13:18;1.30;;;0.98;;
37559;SDS011;23398;50.928;7.084;2022-08-06T08:15:47;1.83;;;1.08;;
37559;SDS011;23398;50.928;7.084;2022-08-06T08:18:13;1.60;;;0.93;;
37559;SDS011;23398;50.928;7.084;2022-08-06T08:20:39;1.77;;;1.13;;
37559;SDS011;23398;50.928;7.084;2022-08-06T08:23:07;1.60;;;1.00;;
37559;SDS011;23398;50.928;7.084;2022-08-06T08:25:37;1.50;;;1.00;;
37559;SDS011;23398;50.928;7.084;2022-08-06T08:28:03;1.50;;;0.88;;
37559;SDS011;23398;50.928;7.084;2022-08-06T08:30:29;1.35;;;0.90;;
37559;SDS011;23398;50.928;7.084;2022-08-06T08:32:55;1.95;;;1.00;;
37559;SDS011;23398;50.928;7.084;2022-08-06T08:35:21;1.98;;;1.00;;
37559;SDS011;23398;50.928;7.084;2022-08-06T08:37:46;2.00;;;1.00;;
37559;SDS011;23398;50.928;7.084;2022-08-06T08:40:12;1.58;;;1.00;;
37559;SDS011;23398;50.928;7.084;2022-08-06T08:42:45;1.48;;;1.30;;
37559;SDS011;23398;50.928;7.084;2022-08-06T08:45:13;1.42;;;1.00;;
37559;SDS011;23398;50.928;7.084;2022-08-06T08:47:43;1.40;;;0.90;;
37559;SDS011;23398;50.928;7.084;2022-08-06T08:50:12;1.27;;;0.85;;
37559;SDS011;23398;50.928;7.084;2022-08-06T08:52:39;2.30;;;0.80;;
37559;SDS011;23398;50.928;7.084;2022-08-06T08:55:09;2.72;;;0.80;;
37559;SDS011;23398;50.928;7.084;2022-08-06T08:57:37;2.47;;;0.70;;
37559;SDS011;23398;50.928;7.084;2022-08-06T09:00:05;1.75;;;0.80;;
37559;SDS011;23398;50.928;7.084;2022-08-06T09:02:31;1.63;;;0.90;;
37559;SDS011;23398;50.928;7.084;2022-08-06T09:04:57;1.10;;;0.90;;
37559;SDS011;23398;50.928;7.084;2022-08-06T09:07:24;5.00;;;0.80;;
37559;SDS011;23398;50.928;7.084;2022-08-06T09:09:52;1.92;;;0.80;;
37559;SDS011;23398;50.928;7.084;2022-08-06T09:12:18;1.30;;;0.90;;
37559;SDS011;23398;50.928;7.084;2022-08-06T09:14:44;1.88;;;1.00;;
37559;SDS011;23398;50.928;7.084;2022-08-06T09:17:11;0.70;;;0.70;;
37559;SDS011;23398;50.928;7.084;2022-08-06T09:19:37;1.17;;;0.70;;
37559;SDS011;23398;50.928;7.084;2022-08-06T09:22:03;0.88;;;0.70;;
37559;SDS011;23398;50.928;7.084;2022-08-06T09:24:29;2.30;;;0.90;;
37559;SDS011;23398;50.928;7.084;2022-08-06T09:27:13;1.13;;;0.70;;
37559;SDS011;23398;50.928;7.084;2022-08-06T09:35:25;2.75;;;1.00;;
37559;SDS011;23398;50.928;7.084;2022-08-06T09:38:02;1.70;;;0.80;;
37559;SDS011;23398;50.928;7.084;2022-08-06T09:40:29;2.47;;;0.73;;
37559;SDS011;23398;50.928;7.084;2022-08-06T09:42:55;0.88;;;0.70;;
37559;SDS011;23398;50.928;7.084;2022-08-06T09:45:22;1.10;;;0.90;;
37559;SDS011;23398;50.928;7.084;2022-08-06T09:47:59;0.70;;;0.70;;
37559;SDS011;23398;50.928;7.084;2022-08-06T09:50:39;1.45;;;1.00;;
37559;SDS011;23398;50.928;7.084;2022-08-06T09:53:07;1.38;;;0.90;;
37559;SDS011;23398;50.928;7.084;2022-08-06T09:55:33;1.55;;;0.95;;
37559;SDS011;23398;50.928;7.084;2022-08-06T09:57:59;1.05;;;0.80;;
37559;SDS011;23398;50.928;7.084;2022-08-06T10:00:25;0.70;;;0.70;;
37559;SDS011;23398;50.928;7.084;2022-08-06T10:03:00;0.80;;;0.80;;
37559;SDS011;23398;50.928;7.084;2022-08-06T10:05:27;1.15;;;0.80;;
37559;SDS011;23398;50.928;7.084;2022-08-06T10:08:13;0.73;;;0.70;;
37559;SDS011;23398;50.928;7.084;2022-08-06T10:10:47;0.90;;;0.80;;
37559;SDS011;23398;50.928;7.084;2022-08-06T10:13:19;1.77;;;0.80;;
37559;SDS011;23398;50.928;7.084;2022-08-06T10:15:48;1.27;;;0.75;;
37559;SDS011;23398;50.928;7.084;2022-08-06T10:18:31;1.42;;;0.73;;
37559;SDS011;23398;50.928;7.084;2022-08-06T10:20:59;1.13;;;0.60;;
37559;SDS011;23398;50.928;7.084;2022-08-06T10:23:31;1.80;;;0.80;;
37559;SDS011;23398;50.928;7.084;2022-08-06T10:25:58;0.80;;;0.80;;
37559;SDS011;23398;50.928;7.084;2022-08-06T10:28:25;0.90;;;0.80;;
37559;SDS011;23398;50.928;7.084;2022-08-06T10:30:52;0.88;;;0.70;;
37559;SDS011;23398;50.928;7.084;2022-08-06T10:33:19;1.23;;;0.70;;
37559;SDS011;23398;50.928;7.084;2022-08-06T10:35:48;1.23;;;0.80;;
37559;SDS011;23398;50.928;7.084;2022-08-06T10:38:18;1.05;;;0.70;;
37559;SDS011;23398;50.928;7.084;2022-08-06T10:40:48;1.35;;;0.80;;
37559;SDS011;23398;50.928;7.084;2022-08-06T10:43:16;1.00;;;0.70;;
37559;SDS011;23398;50.928;7.084;2022-08-06T10:45:43;0.70;;;0.57;;
37559;SDS011;23398;50.928;7.084;2022-08-06T10:48:09;0.82;;;0.60;;
37559;SDS011;23398;50.928;7.084;2022-08-06T10:50:35;0.85;;;0.70;;
37559;SDS011;23398;50.928;7.084;2022-08-06T10:53:02;0.60;;;0.60;;
37559;SDS011;23398;50.928;7.084;2022-08-06T10:55:30;0.82;;;0.70;;
37559;SDS011;23398;50.928;7.084;2022-08-06T10:57:56;1.20;;;0.63;;
37559;SDS011;23398;50.928;7.084;2022-08-06T11:00:23;0.63;;;0.60;;
37559;SDS011;23398;50.928;7.084;2022-08-06T11:02:56;1.10;;;0.50;;
37559;SDS011;23398;50.928;7.084;2022-08-06T11:05:33;1.40;;;0.50;;
37559;SDS011;23398;50.928;7.084;2022-08-06T11:11:28;2.33;;;0.93;;
37559;SDS011;23398;50.928;7.084;2022-08-06T11:16:33;0.68;;;0.50;;
37559;SDS011;23398;50.928;7.084;2022-08-06T11:21:39;0.80;;;0.60;;
37559;SDS011;23398;50.928;7.084;2022-08-06T11:24:07;0.52;;;0.52;;
37559;SDS011;23398;50.928;7.084;2022-08-06T11:26:35;0.90;;;0.50;;
37559;SDS011;23398;50.928;7.084;2022-08-06T11:29:06;0.85;;;0.60;;
37559;SDS011;23398;50.928;7.084;2022-08-06T11:31:36;0.47;;;0.47;;
37559;SDS011;23398;50.928;7.084;2022-08-06T11:34:06;0.70;;;0.50;;
37559;SDS011;23398;50.928;7.084;2022-08-06T11:40:04;0.90;;;0.60;;
37559;SDS011;23398;50.928;7.084;2022-08-06T11:42:41;1.50;;;0.60;;
37559;SDS011;23398;50.928;7.084;2022-08-06T11:45:07;1.00;;;0.75;;
37559;SDS011;23398;50.928;7.084;2022-08-06T11:47:33;1.45;;;0.70;;
37559;SDS011;23398;50.928;7.084;2022-08-06T11:49:59;0.45;;;0.45;;
37559;SDS011;23398;50.928;7.084;2022-08-06T11:55:03;1.13;;;0.60;;
37559;SDS011;23398;50.928;7.084;2022-08-06T11:57:32;0.93;;;0.73;;
37559;SDS011;23398;50.928;7.084;2022-08-06T12:05:07;1.08;;;0.60;;
37559;SDS011;23398;50.928;7.084;2022-08-06T12:14:00;0.82;;;0.50;;
37559;SDS011;23398;50.928;7.084;2022-08-06T12:16:34;0.63;;;0.47;;
37559;SDS011;23398;50.928;7.084;2022-08-06T12:19:02;1.13;;;0.50;;
37559;SDS011;23398;50.928;7.084;2022-08-06T12:21:29;0.50;;;0.50;;
37559;SDS011;23398;50.928;7.084;2022-08-06T12:23:55;0.93;;;0.70;;
37559;SDS011;23398;50.928;7.084;2022-08-06T12:26:21;0.60;;;0.60;;
37559;SDS011;23398;50.928;7.084;2022-08-06T12:28:47;0.77;;;0.70;;
37559;SDS011;23398;50.928;7.084;2022-08-06T12:31:17;0.98;;;0.60;;
37559;SDS011;23398;50.928;7.084;2022-08-06T12:33:56;1.25;;;0.47;;
37559;SDS011;23398;50.928;7.084;2022-08-06T12:36:25;0.60;;;0.60;;
37559;SDS011;23398;50.928;7.084;2022-08-06T12:38:53;1.45;;;0.60;;
37559;SDS011;23398;50.928;7.084;2022-08-06T12:41:20;1.83;;;0.60;;
37559;SDS011;23398;50.928;7.084;2022-08-06T12:43:46;0.90;;;0.57;;
37559;SDS011;23398;50.928;7.084;2022-08-06T12:46:11;1.00;;;0.60;;
37559;SDS011;23398;50.928;7.084;2022-08-06T12:48:44;0.57;;;0.57;;
37559;SDS011;23398;50.928;7.084;2022-08-06T12:51:12;0.90;;;0.70;;
37559;SDS011;23398;50.928;7.084;2022-08-06T12:53:39;4.10;;;0.60;;
37559;SDS011;23398;50.928;7.084;2022-08-06T12:56:05;1.38;;;0.65;;
37559;SDS011;23398;50.928;7.084;2022-08-06T12:58:33;1.00;;;0.60;;
37559;SDS011;23398;50.928;7.084;2022-08-06T13:01:00;2.38;;;0.70;;
37559;SDS011;23398;50.928;7.084;2022-08-06T13:03:28;0.98;;;0.52;;
37559;SDS011;23398;50.928;7.084;2022-08-06T13:06:00;0.77;;;0.60;;
37559;SDS011;23398;50.928;7.084;2022-08-06T13:08:28;1.17;;;0.63;;
37559;SDS011;23398;50.928;7.084;2022-08-06T13:10:55;0.65;;;0.60;;
37559;SDS011;23398;50.928;7.084;2022-08-06T13:13:33;1.48;;;0.68;;
37559;SDS011;23398;50.928;7.084;2022-08-06T13:16:07;1.15;;;0.50;;
37559;SDS011;23398;50.928;7.084;2022-08-06T13:18:35;0.82;;;0.50;;
37559;SDS011;23398;50.928;7.084;2022-08-06T13:21:02;1.88;;;0.50;;
37559;SDS011;23398;50.928;7.084;2022-08-06T13:23:36;1.08;;;0.63;;
37559;SDS011;23398;50.928;7.084;2022-08-06T13:26:12;0.40;;;0.40;;
37559;SDS011;23398;50.928;7.084;2022-08-06T13:29:01;0.40;;;0.40;;
37559;SDS011;23398;50.928;7.084;2022-08-06T13:31:40;0.82;;;0.47;;
37559;SDS011;23398;50.928;7.084;2022-08-06T13:34:10;0.68;;;0.60;;
37559;SDS011;23398;50.928;7.084;2022-08-06T13:36:37;0.60;;;0.60;;
37559;SDS011;23398;50.928;7.084;2022-08-06T13:39:16;1.20;;;0.55;;
37559;SDS011;23398;50.928;7.084;2022-08-06T13:41:43;0.90;;;0.60;;
37559;SDS011;23398;50.928;7.084;2022-08-06T13:44:25;0.60;;;0.60;;
37559;SDS011;23398;50.928;7.084;2022-08-06T13:47:03;0.88;;;0.63;;
37559;SDS011;23398;50.928;7.084;2022-08-06T13:49:33;1.25;;;0.80;;
37559;SDS011;23398;50.928;7.084;2022-08-06T13:51:59;0.70;;;0.70;;
37559;SDS011;23398;50.928;7.084;2022-08-06T13:54:26;0.77;;;0.70;;
37559;SDS011;23398;50.928;7.084;2022-08-06T13:56:53;0.65;;;0.60;;
37559;SDS011;23398;50.928;7.084;2022-08-06T13:59:20;0.65;;;0.60;;
37559;SDS011;23398;50.928;7.084;2022-08-06T14:01:51;1.38;;;0.70;;
37559;SDS011;23398;50.928;7.084;2022-08-06T14:04:18;0.60;;;0.60;;
37559;SDS011;23398;50.928;7.084;2022-08-06T14:06:47;0.60;;;0.60;;
37559;SDS011;23398;50.928;7.084;2022-08-06T14:09:14;0.60;;;0.60;;
37559;SDS011;23398;50.928;7.084;2022-08-06T14:11:41;1.02;;;0.70;;
37559;SDS011;23398;50.928;7.084;2022-08-06T14:14:07;0.90;;;0.60;;
37559;SDS011;23398;50.928;7.084;2022-08-06T14:16:33;0.70;;;0.57;;
37559;SDS011;23398;50.928;7.084;2022-08-06T14:18:59;0.60;;;0.60;;
37559;SDS011;23398;50.928;7.084;2022-08-06T14:21:24;0.82;;;0.75;;
37559;SDS011;23398;50.928;7.084;2022-08-06T14:23:50;0.60;;;0.60;;
37559;SDS011;23398;50.928;7.084;2022-08-06T14:26:15;0.68;;;0.68;;
37559;SDS011;23398;50.928;7.084;2022-08-06T14:28:41;1.15;;;0.80;;
37559;SDS011;23398;50.928;7.084;2022-08-06T14:31:06;1.35;;;0.95;;
37559;SDS011;23398;50.928;7.084;2022-08-06T14:33:33;0.70;;;0.60;;
37559;SDS011;23398;50.928;7.084;2022-08-06T14:35:59;1.10;;;0.80;;
37559;SDS011;23398;50.928;7.084;2022-08-06T14:38:24;0.93;;;0.73;;
37559;SDS011;23398;50.928;7.084;2022-08-06T14:40:50;0.63;;;0.63;;
37559;SDS011;23398;50.928;7.084;2022-08-06T14:43:34;1.08;;;0.70;;
37559;SDS011;23398;50.928;7.084;2022-08-06T14:46:18;1.90;;;0.80;;
37559;SDS011;23398;50.928;7.084;2022-08-06T14:48:44;1.23;;;0.80;;
37559;SDS011;23398;50.928;7.084;2022-08-06T14:51:09;1.10;;;0.80;;
37559;SDS011;23398;50.928;7.084;2022-08-06T14:53:35;0.60;;;0.60;;
37559;SDS011;23398;50.928;7.084;2022-08-06T14:56:01;0.70;;;0.70;;
37559;SDS011;23398;50.928;7.084;2022-08-06T14:58:26;1.13;;;0.80;;
37559;SDS011;23398;50.928;7.084;2022-08-06T15:00:52;1.45;;;0.88;;
37559;SDS011;23398;50.928;7.084;2022-08-06T15:03:18;0.80;;;0.70;;
37559;SDS011;23398;50.928;7.084;2022-08-06T15:05:44;0.65;;;0.60;;
37559;SDS011;23398;50.928;7.084;2022-08-06T15:08:10;0.63;;;0.55;;
37559;SDS011;23398;50.928;7.084;2022-08-06T15:10:36;0.68;;;0.68;;
37559;SDS011;23398;50.928;7.084;2022-08-06T15:13:02;0.70;;;0.70;;
37559;SDS011;23398;50.928;7.084;2022-08-06T15:15:29;1.33;;;0.80;;
37559;SDS011;23398;50.928;7.084;2022-08-06T15:17:56;1.58;;;0.90;;
37559;SDS011;23398;50.928;7.084;2022-08-06T15:20:21;1.05;;;0.70;;
37559;SDS011;23398;50.928;7.084;2022-08-06T15:22:47;1.30;;;0.90;;
37559;SDS011;23398;50.928;7.084;2022-08-06T15:25:12;0.70;;;0.70;;
37559;SDS011;23398;50.928;7.084;2022-08-06T15:27:42;1.10;;;0.90;;
37559;SDS011;23398;50.928;7.084;2022-08-06T15:30:09;1.23;;;0.88;;
37559;SDS011;23398;50.928;7.084;2022-08-06T15:32:34;1.13;;;0.90;;
37559;SDS011;23398;50.928;7.084;2022-08-06T15:35:00;0.90;;;0.60;;
37559;SDS011;23398;50.928;7.084;2022-08-06T15:37:26;1.23;;;0.70;;
37559;SDS011;23398;50.928;7.084;2022-08-06T15:39:51;1.15;;;0.70;;
37559;SDS011;23398;50.928;7.084;2022-08-06T15:42:17;1.10;;;0.90;;
37559;SDS011;23398;50.928;7.084;2022-08-06T15:44:42;0.93;;;0.80;;
37559;SDS011;23398;50.928;7.084;2022-08-06T15:47:08;1.02;;;0.60;;